sensor_id;sensor_type;location;lat;lon;timestamp;temperature;humidity
29295;DHT22;16305;48.566;8.846;2022-07-29T00:00:40;17.10;99.90
29295;DHT22;16305;48.566;8.846;2022-07-29T00:03:10;17.10;99.90
29295;DHT22;16305;48.566;8.846;2022-07-29T00:05:35;17.00;99.90
29295;DHT22;16305;48.566;8.846;2022-07-29T00:08:01;17.00;99.90
29295;DHT22;16305;48.566;8.846;2022-07-29T00:10:26;17.10;99.90
29295;DHT22;16305;48.566;8.846;2022-07-29T00:12:52;17.20;99.90
29295;DHT22;16305;48.566;8.846;2022-07-29T00:15:17;17.30;99.90
29295;DHT22;16305;48.566;8.846;2022-07-29T00:17:43;17.30;99.90
29295;DHT22;16305;48.566;8.846;2022-07-29T00:20:09;17.30;99.90
29295;DHT22;16305;48.566;8.846;2022-07-29T00:22:37;17.20;99.90
29295;DHT22;16305;48.566;8.846;2022-07-29T00:25:03;17.30;99.90
29295;DHT22;16305;48.566;8.846;2022-07-29T00:27:29;17.30;99.90
29295;DHT22;16305;48.566;8.846;2022-07-29T00:29:54;17.30;99.90
29295;DHT22;16305;48.566;8.846;2022-07-29T00:32:20;17.30;99.90
29295;DHT22;16305;48.566;8.846;2022-07-29T00:34:45;17.30;99.90
29295;DHT22;16305;48.566;8.846;2022-07-29T00:37:29;17.20;99.90
29295;DHT22;16305;48.566;8.846;2022-07-29T00:39:55;17.30;99.90
29295;DHT22;16305;48.566;8.846;2022-07-29T00:42:20;17.30;99.90
29295;DHT22;16305;48.566;8.846;2022-07-29T00:44:46;17.30;99.90
29295;DHT22;16305;48.566;8.846;2022-07-29T00:47:12;17.30;99.90
29295;DHT22;16305;48.566;8.846;2022-07-29T00:49:39;17.30;99.90
29295;DHT22;16305;48.566;8.846;2022-07-29T00:52:05;17.20;99.90
29295;DHT22;16305;48.566;8.846;2022-07-29T00:54:33;17.10;99.90
29295;DHT22;16305;48.566;8.846;2022-07-29T00:56:59;17.10;99.90
29295;DHT22;16305;48.566;8.846;2022-07-29T00:59:26;17.10;99.90
29295;DHT22;16305;48.566;8.846;2022-07-29T01:01:53;17.10;99.90
29295;DHT22;16305;48.566;8.846;2022-07-29T01:04:19;17.00;99.90
29295;DHT22;16305;48.566;8.846;2022-07-29T01:06:45;17.00;99.90
29295;DHT22;16305;48.566;8.846;2022-07-29T01:09:12;17.00;99.90
29295;DHT22;16305;48.566;8.846;2022-07-29T01:11:38;17.00;99.90
29295;DHT22;16305;48.566;8.846;2022-07-29T01:14:05;17.00;99.90
29295;DHT22;16305;48.566;8.846;2022-07-29T01:16:37;17.00;99.90
29295;DHT22;16305;48.566;8.846;2022-07-29T01:19:18;17.00;99.90
29295;DHT22;16305;48.566;8.846;2022-07-29T01:21:54;17.00;99.90
29295;DHT22;16305;48.566;8.846;2022-07-29T01:27:21;17.00;99.90
29295;DHT22;16305;48.566;8.846;2022-07-29T01:29:56;16.90;99.90
29295;DHT22;16305;48.566;8.846;2022-07-29T01:32:27;17.00;99.90
29295;DHT22;16305;48.566;8.846;2022-07-29T01:35:10;17.00;99.90
29295;DHT22;16305;48.566;8.846;2022-07-29T01:37:52;17.00;99.90
29295;DHT22;16305;48.566;8.846;2022-07-29T01:40:29;17.00;99.90
29295;DHT22;16305;48.566;8.846;2022-07-29T01:42:57;17.00;99.90
29295;DHT22;16305;48.566;8.846;2022-07-29T01:48:31;17.00;99.90
29295;DHT22;16305;48.566;8.846;2022-07-29T01:51:13;17.00;99.90
29295;DHT22;16305;48.566;8.846;2022-07-29T01:53:50;16.90;99.90
29295;DHT22;16305;48.566;8.846;2022-07-29T01:56:20;16.80;99.90
29295;DHT22;16305;48.566;8.846;2022-07-29T01:58:49;16.90;99.90
29295;DHT22;16305;48.566;8.846;2022-07-29T02:01:16;16.80;99.90
29295;DHT22;16305;48.566;8.846;2022-07-29T02:03:44;16.90;99.90
29295;DHT22;16305;48.566;8.846;2022-07-29T02:06:11;16.90;99.90
29295;DHT22;16305;48.566;8.846;2022-07-29T02:08:38;16.80;99.90
29295;DHT22;16305;48.566;8.846;2022-07-29T02:11:05;16.80;99.90
29295;DHT22;16305;48.566;8.846;2022-07-29T02:13:34;16.80;99.90
29295;DHT22;16305;48.566;8.846;2022-07-29T02:16:02;16.70;99.90
29295;DHT22;16305;48.566;8.846;2022-07-29T02:18:30;16.70;99.90
29295;DHT22;16305;48.566;8.846;2022-07-29T02:20:56;16.70;99.90
29295;DHT22;16305;48.566;8.846;2022-07-29T02:23:24;16.60;99.90
29295;DHT22;16305;48.566;8.846;2022-07-29T02:25:53;16.60;99.90
29295;DHT22;16305;48.566;8.846;2022-07-29T02:28:21;16.60;99.90
29295;DHT22;16305;48.566;8.846;2022-07-29T02:30:47;16.60;99.90
29295;DHT22;16305;48.566;8.846;2022-07-29T02:33:17;16.60;99.90
29295;DHT22;16305;48.566;8.846;2022-07-29T02:35:45;16.60;99.90
29295;DHT22;16305;48.566;8.846;2022-07-29T02:38:14;16.60;99.90
29295;DHT22;16305;48.566;8.846;2022-07-29T02:41:10;16.60;99.90
29295;DHT22;16305;48.566;8.846;2022-07-29T02:43:37;16.60;99.90
29295;DHT22;16305;48.566;8.846;2022-07-29T02:46:08;16.60;99.90
29295;DHT22;16305;48.566;8.846;2022-07-29T02:48:38;16.60;99.90
29295;DHT22;16305;48.566;8.846;2022-07-29T02:51:18;16.60;99.90
29295;DHT22;16305;48.566;8.846;2022-07-29T02:53:47;16.60;99.90
29295;DHT22;16305;48.566;8.846;2022-07-29T02:56:16;16.60;99.90
29295;DHT22;16305;48.566;8.846;2022-07-29T02:58:51;16.60;99.90
29295;DHT22;16305;48.566;8.846;2022-07-29T03:01:24;16.60;99.90
29295;DHT22;16305;48.566;8.846;2022-07-29T03:03:53;16.60;99.90
29295;DHT22;16305;48.566;8.846;2022-07-29T03:06:21;16.60;99.90
29295;DHT22;16305;48.566;8.846;2022-07-29T03:08:48;16.50;99.90
29295;DHT22;16305;48.566;8.846;2022-07-29T03:11:15;16.50;99.90
29295;DHT22;16305;48.566;8.846;2022-07-29T03:13:42;16.50;99.90
29295;DHT22;16305;48.566;8.846;2022-07-29T03:16:10;16.50;99.90
29295;DHT22;16305;48.566;8.846;2022-07-29T03:18:36;16.40;99.90
29295;DHT22;16305;48.566;8.846;2022-07-29T03:21:03;16.40;99.90
29295;DHT22;16305;48.566;8.846;2022-07-29T03:23:28;16.30;99.90
29295;DHT22;16305;48.566;8.846;2022-07-29T03:25:54;16.20;99.90
29295;DHT22;16305;48.566;8.846;2022-07-29T03:28:21;16.20;99.90
29295;DHT22;16305;48.566;8.846;2022-07-29T03:30:47;16.20;99.90
29295;DHT22;16305;48.566;8.846;2022-07-29T03:33:12;16.20;99.90
29295;DHT22;16305;48.566;8.846;2022-07-29T03:35:38;16.10;99.90
29295;DHT22;16305;48.566;8.846;2022-07-29T03:38:03;16.10;99.90
29295;DHT22;16305;48.566;8.846;2022-07-29T03:40:38;16.00;99.90
29295;DHT22;16305;48.566;8.846;2022-07-29T03:43:07;16.10;99.90
29295;DHT22;16305;48.566;8.846;2022-07-29T03:45:34;16.10;99.90
29295;DHT22;16305;48.566;8.846;2022-07-29T03:48:05;16.10;99.90
29295;DHT22;16305;48.566;8.846;2022-07-29T03:50:33;16.20;99.90
29295;DHT22;16305;48.566;8.846;2022-07-29T03:52:59;16.20;99.90
29295;DHT22;16305;48.566;8.846;2022-07-29T03:55:26;16.20;99.90
29295;DHT22;16305;48.566;8.846;2022-07-29T03:57:53;16.30;99.90
29295;DHT22;16305;48.566;8.846;2022-07-29T04:00:20;16.30;99.90
29295;DHT22;16305;48.566;8.846;2022-07-29T04:02:47;16.30;99.90
29295;DHT22;16305;48.566;8.846;2022-07-29T04:05:14;16.20;99.90
29295;DHT22;16305;48.566;8.846;2022-07-29T04:07:43;16.20;99.90
29295;DHT22;16305;48.566;8.846;2022-07-29T04:10:09;16.20;99.90
29295;DHT22;16305;48.566;8.846;2022-07-29T04:12:34;16.20;99.90
29295;DHT22;16305;48.566;8.846;2022-07-29T04:15:01;16.30;99.90
29295;DHT22;16305;48.566;8.846;2022-07-29T04:17:26;16.30;99.90
29295;DHT22;16305;48.566;8.846;2022-07-29T04:19:52;16.30;99.90
29295;DHT22;16305;48.566;8.846;2022-07-29T04:22:17;16.40;99.90
29295;DHT22;16305;48.566;8.846;2022-07-29T04:24:43;16.30;99.90
29295;DHT22;16305;48.566;8.846;2022-07-29T04:27:08;16.40;99.90
29295;DHT22;16305;48.566;8.846;2022-07-29T04:29:34;16.40;99.90
29295;DHT22;16305;48.566;8.846;2022-07-29T04:31:59;16.40;99.90
29295;DHT22;16305;48.566;8.846;2022-07-29T04:34:25;16.50;99.90
29295;DHT22;16305;48.566;8.846;2022-07-29T04:36:50;16.50;99.90
29295;DHT22;16305;48.566;8.846;2022-07-29T04:39:16;16.60;99.90
29295;DHT22;16305;48.566;8.846;2022-07-29T04:41:43;16.80;99.90
29295;DHT22;16305;48.566;8.846;2022-07-29T04:44:09;16.80;99.90
29295;DHT22;16305;48.566;8.846;2022-07-29T04:46:35;16.90;99.90
29295;DHT22;16305;48.566;8.846;2022-07-29T04:49:01;16.90;99.90
29295;DHT22;16305;48.566;8.846;2022-07-29T04:51:27;16.90;99.90
29295;DHT22;16305;48.566;8.846;2022-07-29T04:53:53;17.00;99.90
29295;DHT22;16305;48.566;8.846;2022-07-29T04:56:18;17.20;99.90
29295;DHT22;16305;48.566;8.846;2022-07-29T04:58:44;17.30;99.90
29295;DHT22;16305;48.566;8.846;2022-07-29T05:01:09;17.40;99.90
29295;DHT22;16305;48.566;8.846;2022-07-29T05:03:35;17.50;99.90
29295;DHT22;16305;48.566;8.846;2022-07-29T05:06:00;17.50;99.90
29295;DHT22;16305;48.566;8.846;2022-07-29T05:08:26;17.50;99.90
29295;DHT22;16305;48.566;8.846;2022-07-29T05:10:51;17.50;99.90
29295;DHT22;16305;48.566;8.846;2022-07-29T05:13:17;17.50;99.90
29295;DHT22;16305;48.566;8.846;2022-07-29T05:15:42;17.50;99.90
29295;DHT22;16305;48.566;8.846;2022-07-29T05:18:08;17.50;99.90
29295;DHT22;16305;48.566;8.846;2022-07-29T05:20:33;17.50;99.90
29295;DHT22;16305;48.566;8.846;2022-07-29T05:23:00;17.40;99.90
29295;DHT22;16305;48.566;8.846;2022-07-29T05:25:27;17.50;99.90
29295;DHT22;16305;48.566;8.846;2022-07-29T05:27:53;17.60;99.90
29295;DHT22;16305;48.566;8.846;2022-07-29T05:30:19;17.60;99.90
29295;DHT22;16305;48.566;8.846;2022-07-29T05:32:44;17.60;99.90
29295;DHT22;16305;48.566;8.846;2022-07-29T05:35:11;17.50;99.90
29295;DHT22;16305;48.566;8.846;2022-07-29T05:37:36;17.50;99.90
29295;DHT22;16305;48.566;8.846;2022-07-29T05:40:03;17.40;99.90
29295;DHT22;16305;48.566;8.846;2022-07-29T05:42:28;17.50;99.90
29295;DHT22;16305;48.566;8.846;2022-07-29T05:44:55;17.50;99.90
29295;DHT22;16305;48.566;8.846;2022-07-29T05:47:20;17.50;99.90
29295;DHT22;16305;48.566;8.846;2022-07-29T05:49:46;17.50;99.90
29295;DHT22;16305;48.566;8.846;2022-07-29T05:52:12;17.50;99.90
29295;DHT22;16305;48.566;8.846;2022-07-29T05:54:38;17.50;99.90
29295;DHT22;16305;48.566;8.846;2022-07-29T05:57:04;17.60;99.90
29295;DHT22;16305;48.566;8.846;2022-07-29T05:59:30;17.50;99.90
29295;DHT22;16305;48.566;8.846;2022-07-29T06:01:56;17.60;99.90
29295;DHT22;16305;48.566;8.846;2022-07-29T06:04:22;17.60;99.90
29295;DHT22;16305;48.566;8.846;2022-07-29T06:06:48;17.80;99.90
29295;DHT22;16305;48.566;8.846;2022-07-29T06:09:13;17.90;99.90
29295;DHT22;16305;48.566;8.846;2022-07-29T06:11:42;17.90;99.90
29295;DHT22;16305;48.566;8.846;2022-07-29T06:14:07;17.90;99.90
29295;DHT22;16305;48.566;8.846;2022-07-29T06:16:33;18.00;99.90
29295;DHT22;16305;48.566;8.846;2022-07-29T06:18:58;18.10;99.90
29295;DHT22;16305;48.566;8.846;2022-07-29T06:21:24;18.20;99.90
29295;DHT22;16305;48.566;8.846;2022-07-29T06:23:49;18.30;99.90
29295;DHT22;16305;48.566;8.846;2022-07-29T06:26:15;18.40;99.90
29295;DHT22;16305;48.566;8.846;2022-07-29T06:28:41;18.40;99.90
29295;DHT22;16305;48.566;8.846;2022-07-29T06:31:06;18.50;99.90
29295;DHT22;16305;48.566;8.846;2022-07-29T06:33:32;18.50;99.90
29295;DHT22;16305;48.566;8.846;2022-07-29T06:35:58;18.60;99.90
29295;DHT22;16305;48.566;8.846;2022-07-29T06:38:25;18.50;99.90
29295;DHT22;16305;48.566;8.846;2022-07-29T06:40:50;18.50;99.90
29295;DHT22;16305;48.566;8.846;2022-07-29T06:43:31;18.50;99.90
29295;DHT22;16305;48.566;8.846;2022-07-29T06:46:04;18.40;99.90
29295;DHT22;16305;48.566;8.846;2022-07-29T06:48:29;18.50;99.90
29295;DHT22;16305;48.566;8.846;2022-07-29T06:50:55;18.60;99.90
29295;DHT22;16305;48.566;8.846;2022-07-29T06:53:21;18.70;99.90
29295;DHT22;16305;48.566;8.846;2022-07-29T06:55:47;18.80;99.90
29295;DHT22;16305;48.566;8.846;2022-07-29T06:58:13;18.90;99.90
29295;DHT22;16305;48.566;8.846;2022-07-29T07:00:41;19.00;99.90
29295;DHT22;16305;48.566;8.846;2022-07-29T07:03:07;19.00;99.90
29295;DHT22;16305;48.566;8.846;2022-07-29T07:05:33;19.00;99.90
29295;DHT22;16305;48.566;8.846;2022-07-29T07:07:58;19.10;99.90
29295;DHT22;16305;48.566;8.846;2022-07-29T07:10:24;19.00;99.90
29295;DHT22;16305;48.566;8.846;2022-07-29T07:12:49;19.00;99.90
29295;DHT22;16305;48.566;8.846;2022-07-29T07:15:15;19.10;99.90
29295;DHT22;16305;48.566;8.846;2022-07-29T07:17:40;19.30;99.90
29295;DHT22;16305;48.566;8.846;2022-07-29T07:20:06;19.50;99.90
29295;DHT22;16305;48.566;8.846;2022-07-29T07:22:32;19.60;99.90
29295;DHT22;16305;48.566;8.846;2022-07-29T07:24:58;19.70;99.90
29295;DHT22;16305;48.566;8.846;2022-07-29T07:27:23;19.90;99.90
29295;DHT22;16305;48.566;8.846;2022-07-29T07:29:49;20.00;99.90
29295;DHT22;16305;48.566;8.846;2022-07-29T07:32:14;20.10;99.90
29295;DHT22;16305;48.566;8.846;2022-07-29T07:34:42;19.90;99.90
29295;DHT22;16305;48.566;8.846;2022-07-29T07:37:08;20.10;99.90
29295;DHT22;16305;48.566;8.846;2022-07-29T07:39:33;20.30;99.90
29295;DHT22;16305;48.566;8.846;2022-07-29T07:41:59;20.50;99.90
29295;DHT22;16305;48.566;8.846;2022-07-29T07:44:25;20.60;99.90
29295;DHT22;16305;48.566;8.846;2022-07-29T07:46:50;20.60;99.90
29295;DHT22;16305;48.566;8.846;2022-07-29T07:49:16;20.50;99.90
29295;DHT22;16305;48.566;8.846;2022-07-29T07:51:41;20.50;99.90
29295;DHT22;16305;48.566;8.846;2022-07-29T07:54:07;20.90;99.90
29295;DHT22;16305;48.566;8.846;2022-07-29T07:56:32;21.00;99.90
29295;DHT22;16305;48.566;8.846;2022-07-29T07:58:58;20.90;99.90
29295;DHT22;16305;48.566;8.846;2022-07-29T08:01:23;20.90;99.90
29295;DHT22;16305;48.566;8.846;2022-07-29T08:03:49;21.00;99.90
29295;DHT22;16305;48.566;8.846;2022-07-29T08:06:15;20.90;99.90
29295;DHT22;16305;48.566;8.846;2022-07-29T08:08:40;21.00;99.90
29295;DHT22;16305;48.566;8.846;2022-07-29T08:11:06;21.10;99.90
29295;DHT22;16305;48.566;8.846;2022-07-29T08:13:32;21.10;99.90
29295;DHT22;16305;48.566;8.846;2022-07-29T08:15:58;21.40;99.90
29295;DHT22;16305;48.566;8.846;2022-07-29T08:18:29;21.20;99.90
29295;DHT22;16305;48.566;8.846;2022-07-29T08:20:55;21.30;99.90
29295;DHT22;16305;48.566;8.846;2022-07-29T08:23:21;21.30;99.90
29295;DHT22;16305;48.566;8.846;2022-07-29T08:25:48;21.60;99.90
29295;DHT22;16305;48.566;8.846;2022-07-29T08:28:14;21.80;99.90
29295;DHT22;16305;48.566;8.846;2022-07-29T08:30:40;21.70;99.90
29295;DHT22;16305;48.566;8.846;2022-07-29T08:33:05;21.90;99.90
29295;DHT22;16305;48.566;8.846;2022-07-29T08:35:31;22.10;99.90
29295;DHT22;16305;48.566;8.846;2022-07-29T08:37:56;22.40;99.90
29295;DHT22;16305;48.566;8.846;2022-07-29T08:40:23;22.80;99.90
29295;DHT22;16305;48.566;8.846;2022-07-29T08:42:49;22.90;99.90
29295;DHT22;16305;48.566;8.846;2022-07-29T08:45:15;23.00;99.90
29295;DHT22;16305;48.566;8.846;2022-07-29T08:47:41;23.10;99.90
29295;DHT22;16305;48.566;8.846;2022-07-29T08:50:07;23.20;99.90
29295;DHT22;16305;48.566;8.846;2022-07-29T08:52:37;23.40;99.90
29295;DHT22;16305;48.566;8.846;2022-07-29T08:55:04;23.50;99.90
29295;DHT22;16305;48.566;8.846;2022-07-29T08:57:30;23.70;99.90
29295;DHT22;16305;48.566;8.846;2022-07-29T08:59:59;23.90;99.90
29295;DHT22;16305;48.566;8.846;2022-07-29T09:02:28;23.70;99.90
29295;DHT22;16305;48.566;8.846;2022-07-29T09:04:54;23.60;99.90
29295;DHT22;16305;48.566;8.846;2022-07-29T09:07:21;23.80;99.90
29295;DHT22;16305;48.566;8.846;2022-07-29T09:09:47;24.20;99.90
29295;DHT22;16305;48.566;8.846;2022-07-29T09:12:13;24.60;99.90
29295;DHT22;16305;48.566;8.846;2022-07-29T09:14:40;24.80;99.90
29295;DHT22;16305;48.566;8.846;2022-07-29T09:17:06;24.60;99.90
29295;DHT22;16305;48.566;8.846;2022-07-29T09:19:37;24.90;99.90
29295;DHT22;16305;48.566;8.846;2022-07-29T09:22:05;24.60;99.90
29295;DHT22;16305;48.566;8.846;2022-07-29T09:27:00;24.50;99.90
29295;DHT22;16305;48.566;8.846;2022-07-29T09:29:27;24.50;99.90
29295;DHT22;16305;48.566;8.846;2022-07-29T09:31:54;24.60;99.90
29295;DHT22;16305;48.566;8.846;2022-07-29T09:34:25;24.30;99.90
29295;DHT22;16305;48.566;8.846;2022-07-29T09:36:51;24.20;99.90
29295;DHT22;16305;48.566;8.846;2022-07-29T09:41:54;24.60;99.90
29295;DHT22;16305;48.566;8.846;2022-07-29T09:44:21;24.80;99.90
29295;DHT22;16305;48.566;8.846;2022-07-29T09:49:19;25.30;99.90
29295;DHT22;16305;48.566;8.846;2022-07-29T09:51:45;25.60;99.90
29295;DHT22;16305;48.566;8.846;2022-07-29T09:54:24;26.00;99.90
29295;DHT22;16305;48.566;8.846;2022-07-29T09:56:54;25.90;99.90
29295;DHT22;16305;48.566;8.846;2022-07-29T09:59:21;26.00;99.90
29295;DHT22;16305;48.566;8.846;2022-07-29T10:01:49;25.90;99.90
29295;DHT22;16305;48.566;8.846;2022-07-29T10:04:15;25.80;99.90
29295;DHT22;16305;48.566;8.846;2022-07-29T10:07:01;25.90;99.90
29295;DHT22;16305;48.566;8.846;2022-07-29T10:09:26;26.20;99.90
29295;DHT22;16305;48.566;8.846;2022-07-29T10:12:12;26.20;99.90
29295;DHT22;16305;48.566;8.846;2022-07-29T10:14:40;26.50;99.90
29295;DHT22;16305;48.566;8.846;2022-07-29T10:17:07;25.90;99.90
29295;DHT22;16305;48.566;8.846;2022-07-29T10:19:34;26.00;99.90
29295;DHT22;16305;48.566;8.846;2022-07-29T10:22:02;26.30;99.90
29295;DHT22;16305;48.566;8.846;2022-07-29T10:24:29;26.40;99.90
29295;DHT22;16305;48.566;8.846;2022-07-29T10:26:57;26.10;99.90
29295;DHT22;16305;48.566;8.846;2022-07-29T10:29:23;26.40;99.90
29295;DHT22;16305;48.566;8.846;2022-07-29T10:32:02;26.50;99.90
29295;DHT22;16305;48.566;8.846;2022-07-29T10:37:33;25.50;99.90
29295;DHT22;16305;48.566;8.846;2022-07-29T10:43:14;23.10;99.90
29295;DHT22;16305;48.566;8.846;2022-07-29T10:45:43;22.80;99.90
29295;DHT22;16305;48.566;8.846;2022-07-29T10:48:09;22.80;99.90
29295;DHT22;16305;48.566;8.846;2022-07-29T10:50:55;23.00;99.90
29295;DHT22;16305;48.566;8.846;2022-07-29T10:53:22;22.90;99.90
29295;DHT22;16305;48.566;8.846;2022-07-29T10:55:50;22.90;99.90
29295;DHT22;16305;48.566;8.846;2022-07-29T10:58:19;22.90;99.90
29295;DHT22;16305;48.566;8.846;2022-07-29T11:00:46;22.80;99.90
29295;DHT22;16305;48.566;8.846;2022-07-29T11:06:05;21.90;99.90
29295;DHT22;16305;48.566;8.846;2022-07-29T11:08:31;21.70;99.90
29295;DHT22;16305;48.566;8.846;2022-07-29T11:13:44;21.50;99.90
29295;DHT22;16305;48.566;8.846;2022-07-29T11:16:14;21.60;99.90
29295;DHT22;16305;48.566;8.846;2022-07-29T11:21:41;21.60;99.90
29295;DHT22;16305;48.566;8.846;2022-07-29T11:24:15;21.50;99.90
29295;DHT22;16305;48.566;8.846;2022-07-29T11:26:41;21.60;99.90
29295;DHT22;16305;48.566;8.846;2022-07-29T11:29:19;21.50;99.90
29295;DHT22;16305;48.566;8.846;2022-07-29T11:31:49;21.50;99.90
29295;DHT22;16305;48.566;8.846;2022-07-29T11:34:25;21.30;99.90
29295;DHT22;16305;48.566;8.846;2022-07-29T11:39:34;21.00;99.90
29295;DHT22;16305;48.566;8.846;2022-07-29T11:44:59;21.50;99.90
29295;DHT22;16305;48.566;8.846;2022-07-29T11:47:31;21.70;99.90
29295;DHT22;16305;48.566;8.846;2022-07-29T11:49:58;21.90;99.90
29295;DHT22;16305;48.566;8.846;2022-07-29T11:52:53;22.10;99.90
29295;DHT22;16305;48.566;8.846;2022-07-29T11:55:20;22.50;99.90
29295;DHT22;16305;48.566;8.846;2022-07-29T11:57:49;22.60;99.90
29295;DHT22;16305;48.566;8.846;2022-07-29T12:00:27;22.60;99.90
29295;DHT22;16305;48.566;8.846;2022-07-29T12:02:55;22.60;99.90
29295;DHT22;16305;48.566;8.846;2022-07-29T12:05:25;22.60;99.90
29295;DHT22;16305;48.566;8.846;2022-07-29T12:07:55;22.60;99.90
29295;DHT22;16305;48.566;8.846;2022-07-29T12:10:20;22.80;99.90
29295;DHT22;16305;48.566;8.846;2022-07-29T12:12:51;22.90;99.90
29295;DHT22;16305;48.566;8.846;2022-07-29T12:15:18;23.00;99.90
29295;DHT22;16305;48.566;8.846;2022-07-29T12:17:47;22.90;99.90
29295;DHT22;16305;48.566;8.846;2022-07-29T12:20:12;22.90;99.90
29295;DHT22;16305;48.566;8.846;2022-07-29T12:22:41;22.80;99.90
29295;DHT22;16305;48.566;8.846;2022-07-29T12:25:12;22.80;99.90
29295;DHT22;16305;48.566;8.846;2022-07-29T12:27:39;22.60;99.90
29295;DHT22;16305;48.566;8.846;2022-07-29T12:30:14;22.50;99.90
29295;DHT22;16305;48.566;8.846;2022-07-29T12:32:43;22.30;99.90
29295;DHT22;16305;48.566;8.846;2022-07-29T12:35:12;22.00;99.90
29295;DHT22;16305;48.566;8.846;2022-07-29T12:37:39;21.60;99.90
29295;DHT22;16305;48.566;8.846;2022-07-29T12:40:07;21.00;99.90
29295;DHT22;16305;48.566;8.846;2022-07-29T12:42:33;20.10;99.90
29295;DHT22;16305;48.566;8.846;2022-07-29T12:44:59;19.50;99.90
29295;DHT22;16305;48.566;8.846;2022-07-29T12:47:24;19.10;99.90
29295;DHT22;16305;48.566;8.846;2022-07-29T12:49:52;18.90;99.90
29295;DHT22;16305;48.566;8.846;2022-07-29T12:52:34;18.60;99.90
29295;DHT22;16305;48.566;8.846;2022-07-29T12:55:00;18.60;99.90
29295;DHT22;16305;48.566;8.846;2022-07-29T12:57:26;18.70;99.90
29295;DHT22;16305;48.566;8.846;2022-07-29T13:00:05;19.00;99.90
29295;DHT22;16305;48.566;8.846;2022-07-29T13:02:33;19.30;99.90
29295;DHT22;16305;48.566;8.846;2022-07-29T13:05:00;19.50;99.90
29295;DHT22;16305;48.566;8.846;2022-07-29T13:07:28;19.80;99.90
29295;DHT22;16305;48.566;8.846;2022-07-29T13:12:35;20.00;99.90
29295;DHT22;16305;48.566;8.846;2022-07-29T13:15:00;20.20;99.90
29295;DHT22;16305;48.566;8.846;2022-07-29T13:17:41;20.50;99.90
29295;DHT22;16305;48.566;8.846;2022-07-29T13:20:09;20.70;99.90
29295;DHT22;16305;48.566;8.846;2022-07-29T13:22:38;20.60;99.90
29295;DHT22;16305;48.566;8.846;2022-07-29T13:25:04;20.60;99.90
29295;DHT22;16305;48.566;8.846;2022-07-29T13:27:35;20.70;99.90
29295;DHT22;16305;48.566;8.846;2022-07-29T13:30:04;20.60;99.90
29295;DHT22;16305;48.566;8.846;2022-07-29T13:32:30;20.50;99.90
29295;DHT22;16305;48.566;8.846;2022-07-29T13:34:57;20.60;99.90
29295;DHT22;16305;48.566;8.846;2022-07-29T13:37:24;20.50;99.90
29295;DHT22;16305;48.566;8.846;2022-07-29T13:39:51;20.60;99.90
29295;DHT22;16305;48.566;8.846;2022-07-29T13:42:17;20.70;99.90
29295;DHT22;16305;48.566;8.846;2022-07-29T13:44:43;20.80;99.90
29295;DHT22;16305;48.566;8.846;2022-07-29T13:47:08;20.90;99.90
29295;DHT22;16305;48.566;8.846;2022-07-29T13:49:34;21.00;99.90
29295;DHT22;16305;48.566;8.846;2022-07-29T13:52:00;21.10;99.90
29295;DHT22;16305;48.566;8.846;2022-07-29T13:54:26;21.20;99.90
29295;DHT22;16305;48.566;8.846;2022-07-29T13:56:52;21.20;99.90
29295;DHT22;16305;48.566;8.846;2022-07-29T13:59:17;21.30;99.90
29295;DHT22;16305;48.566;8.846;2022-07-29T14:01:43;21.40;99.90
29295;DHT22;16305;48.566;8.846;2022-07-29T14:04:10;21.50;99.90
29295;DHT22;16305;48.566;8.846;2022-07-29T14:06:36;21.50;99.90
29295;DHT22;16305;48.566;8.846;2022-07-29T14:09:03;21.50;99.90
29295;DHT22;16305;48.566;8.846;2022-07-29T14:11:32;21.70;99.90
29295;DHT22;16305;48.566;8.846;2022-07-29T14:13:57;21.60;99.90
29295;DHT22;16305;48.566;8.846;2022-07-29T14:16:23;21.80;99.90
29295;DHT22;16305;48.566;8.846;2022-07-29T14:18:48;22.00;99.90
29295;DHT22;16305;48.566;8.846;2022-07-29T14:21:14;22.10;99.90
29295;DHT22;16305;48.566;8.846;2022-07-29T14:23:39;22.30;99.90
29295;DHT22;16305;48.566;8.846;2022-07-29T14:26:06;22.30;99.90
29295;DHT22;16305;48.566;8.846;2022-07-29T14:28:32;22.40;99.90
29295;DHT22;16305;48.566;8.846;2022-07-29T14:30:57;22.50;99.90
29295;DHT22;16305;48.566;8.846;2022-07-29T14:33:23;22.60;99.90
29295;DHT22;16305;48.566;8.846;2022-07-29T14:35:48;22.80;99.90
29295;DHT22;16305;48.566;8.846;2022-07-29T14:38:14;23.10;99.90
29295;DHT22;16305;48.566;8.846;2022-07-29T14:40:39;23.20;99.90
29295;DHT22;16305;48.566;8.846;2022-07-29T14:43:05;23.40;99.90
29295;DHT22;16305;48.566;8.846;2022-07-29T14:45:30;23.30;99.90
29295;DHT22;16305;48.566;8.846;2022-07-29T14:47:56;23.40;99.90
29295;DHT22;16305;48.566;8.846;2022-07-29T14:50:22;23.60;99.90
29295;DHT22;16305;48.566;8.846;2022-07-29T14:52:47;23.70;99.90
29295;DHT22;16305;48.566;8.846;2022-07-29T14:55:13;23.90;99.90
29295;DHT22;16305;48.566;8.846;2022-07-29T14:57:38;23.90;99.90
29295;DHT22;16305;48.566;8.846;2022-07-29T15:00:05;23.90;99.90
29295;DHT22;16305;48.566;8.846;2022-07-29T15:02:32;24.00;99.90
29295;DHT22;16305;48.566;8.846;2022-07-29T15:04:58;24.10;99.90
29295;DHT22;16305;48.566;8.846;2022-07-29T15:07:23;24.10;99.90
29295;DHT22;16305;48.566;8.846;2022-07-29T15:09:49;24.30;99.90
29295;DHT22;16305;48.566;8.846;2022-07-29T15:12:16;24.40;99.90
29295;DHT22;16305;48.566;8.846;2022-07-29T15:14:41;24.40;99.90
29295;DHT22;16305;48.566;8.846;2022-07-29T15:17:07;24.60;99.90
29295;DHT22;16305;48.566;8.846;2022-07-29T15:19:33;24.60;99.90
29295;DHT22;16305;48.566;8.846;2022-07-29T15:21:58;24.40;99.90
29295;DHT22;16305;48.566;8.846;2022-07-29T15:24:24;24.40;99.90
29295;DHT22;16305;48.566;8.846;2022-07-29T15:26:50;24.60;99.90
29295;DHT22;16305;48.566;8.846;2022-07-29T15:29:15;24.70;99.90
29295;DHT22;16305;48.566;8.846;2022-07-29T15:31:41;24.70;99.90
29295;DHT22;16305;48.566;8.846;2022-07-29T15:34:07;24.50;99.90
29295;DHT22;16305;48.566;8.846;2022-07-29T15:36:32;24.10;99.90
29295;DHT22;16305;48.566;8.846;2022-07-29T15:38:58;24.00;99.90
29295;DHT22;16305;48.566;8.846;2022-07-29T15:41:23;24.20;99.90
29295;DHT22;16305;48.566;8.846;2022-07-29T15:43:49;24.40;99.90
29295;DHT22;16305;48.566;8.846;2022-07-29T15:46:18;24.40;99.90
29295;DHT22;16305;48.566;8.846;2022-07-29T15:49:04;24.60;99.90
29295;DHT22;16305;48.566;8.846;2022-07-29T15:51:31;24.70;99.90
29295;DHT22;16305;48.566;8.846;2022-07-29T15:53:56;24.80;99.90
29295;DHT22;16305;48.566;8.846;2022-07-29T15:56:22;24.90;99.90
29295;DHT22;16305;48.566;8.846;2022-07-29T15:58:48;24.90;99.90
29295;DHT22;16305;48.566;8.846;2022-07-29T16:01:14;25.00;99.90
29295;DHT22;16305;48.566;8.846;2022-07-29T16:03:39;24.90;99.90
29295;DHT22;16305;48.566;8.846;2022-07-29T16:06:05;24.80;99.90
29295;DHT22;16305;48.566;8.846;2022-07-29T16:08:31;24.70;99.90